weather.gov     
National Weather Service

Terminal Aerodrome Forecast
NWS Homepage
This page is being discontinued on March 12, 2014.
The same data is available at this site. Please update your bookmarks.
Thank you, and we apologize for the inconvenience.
Please send an email to SR-SRH.Webmaster@noaa.gov with any concerns.


Current Version
Previous Version:    01  02  03  04  05  06  07  08  09  10  11  12  13  14  15  16  17  18  19  20  21  22  23  24  25  
[Printable]
821
FTUS41 KLWX 021100
TAFMRB
TAF
KMRB 021135Z 0212/0312 18005KT P6SM SCT100
     FM021600 25008KT P6SM SCT050 BKN100
     FM022000 23009KT P6SM VCTS SCT030CB OVC050
     FM030000 25007KT P6SM SCT040 BKN060
     FM030800 29005KT 5SM BR BKN250
     FM031000 29004KT P6SM SCT250=


U.S. Dept. of Commerce
NOAA National Weather Service
1325 East West Highway
Silver Spring, MD 20910
E-mail: w-nws.webmaster@noaa.gov
Page last modified: May 16, 2007
NATIONAL WEATHER SERVICE: for Safety, for Work, for Fun - FOR LIFE